sensor_id;sensor_type;location;lat;lon;timestamp;P1;durP1;ratioP1;P2;durP2;ratioP2
23360;SDS011;11852;50.082;18.554;2024-03-17T00:00:46;6.7;;;3.4;;
23360;SDS011;11852;50.082;18.554;2024-03-17T00:01:51;8.1;;;3.4;;
23360;SDS011;11852;50.082;18.554;2024-03-17T00:02:55;8.3;;;4.2;;
23360;SDS011;11852;50.082;18.554;2024-03-17T00:04:00;7.1;;;3.3;;
23360;SDS011;11852;50.082;18.554;2024-03-17T00:05:05;6.0;;;3.2;;
23360;SDS011;11852;50.082;18.554;2024-03-17T00:06:13;6.3;;;3.1;;
23360;SDS011;11852;50.082;18.554;2024-03-17T00:07:18;7.1;;;3.5;;
23360;SDS011;11852;50.082;18.554;2024-03-17T00:08:22;7.5;;;3.9;;
23360;SDS011;11852;50.082;18.554;2024-03-17T00:09:27;8.8;;;4.0;;
23360;SDS011;11852;50.082;18.554;2024-03-17T00:10:32;7.4;;;3.8;;
23360;SDS011;11852;50.082;18.554;2024-03-17T00:11:37;8.3;;;4.0;;
23360;SDS011;11852;50.082;18.554;2024-03-17T00:12:42;8.1;;;3.7;;
23360;SDS011;11852;50.082;18.554;2024-03-17T00:13:47;9.9;;;4.6;;
23360;SDS011;11852;50.082;18.554;2024-03-17T00:14:51;9.9;;;4.9;;
23360;SDS011;11852;50.082;18.554;2024-03-17T00:15:57;9.7;;;4.7;;
23360;SDS011;11852;50.082;18.554;2024-03-17T00:17:01;7.7;;;3.9;;
23360;SDS011;11852;50.082;18.554;2024-03-17T00:18:05;9.1;;;4.5;;
23360;SDS011;11852;50.082;18.554;2024-03-17T00:19:10;9.6;;;4.7;;
23360;SDS011;11852;50.082;18.554;2024-03-17T00:20:15;9.4;;;4.7;;
23360;SDS011;11852;50.082;18.554;2024-03-17T00:21:20;8.9;;;5.0;;
23360;SDS011;11852;50.082;18.554;2024-03-17T00:22:25;9.3;;;4.7;;
23360;SDS011;11852;50.082;18.554;2024-03-17T00:23:29;10.4;;;4.7;;
23360;SDS011;11852;50.082;18.554;2024-03-17T00:24:34;9.7;;;4.6;;
23360;SDS011;11852;50.082;18.554;2024-03-17T00:25:39;7.8;;;3.5;;
23360;SDS011;11852;50.082;18.554;2024-03-17T00:26:43;7.7;;;4.0;;
23360;SDS011;11852;50.082;18.554;2024-03-17T00:27:48;9.0;;;4.3;;
23360;SDS011;11852;50.082;18.554;2024-03-17T00:28:53;6.9;;;3.8;;
23360;SDS011;11852;50.082;18.554;2024-03-17T00:29:58;9.0;;;4.4;;
23360;SDS011;11852;50.082;18.554;2024-03-17T00:31:03;7.0;;;3.8;;
23360;SDS011;11852;50.082;18.554;2024-03-17T00:32:08;6.6;;;3.9;;
23360;SDS011;11852;50.082;18.554;2024-03-17T00:33:12;7.2;;;4.2;;
23360;SDS011;11852;50.082;18.554;2024-03-17T00:34:17;6.9;;;3.8;;
23360;SDS011;11852;50.082;18.554;2024-03-17T00:35:22;9.3;;;3.8;;
23360;SDS011;11852;50.082;18.554;2024-03-17T00:36:27;8.1;;;3.9;;
23360;SDS011;11852;50.082;18.554;2024-03-17T00:37:31;6.2;;;3.3;;
23360;SDS011;11852;50.082;18.554;2024-03-17T00:38:36;6.7;;;3.7;;
23360;SDS011;11852;50.082;18.554;2024-03-17T00:39:41;6.9;;;3.9;;
23360;SDS011;11852;50.082;18.554;2024-03-17T00:40:46;7.1;;;3.6;;
23360;SDS011;11852;50.082;18.554;2024-03-17T00:41:50;6.5;;;3.9;;
23360;SDS011;11852;50.082;18.554;2024-03-17T00:42:55;6.0;;;3.1;;
23360;SDS011;11852;50.082;18.554;2024-03-17T00:44:00;7.1;;;3.5;;
23360;SDS011;11852;50.082;18.554;2024-03-17T00:45:05;6.9;;;3.8;;
23360;SDS011;11852;50.082;18.554;2024-03-17T00:46:09;6.5;;;3.7;;
23360;SDS011;11852;50.082;18.554;2024-03-17T00:47:14;6.4;;;3.4;;
23360;SDS011;11852;50.082;18.554;2024-03-17T00:48:19;6.9;;;3.3;;
23360;SDS011;11852;50.082;18.554;2024-03-17T00:49:24;7.3;;;3.6;;
23360;SDS011;11852;50.082;18.554;2024-03-17T00:50:31;6.8;;;3.6;;
23360;SDS011;11852;50.082;18.554;2024-03-17T00:51:36;7.2;;;3.6;;
23360;SDS011;11852;50.082;18.554;2024-03-17T00:52:41;5.8;;;3.0;;
23360;SDS011;11852;50.082;18.554;2024-03-17T00:53:46;6.4;;;3.4;;
23360;SDS011;11852;50.082;18.554;2024-03-17T00:54:53;5.9;;;3.2;;
23360;SDS011;11852;50.082;18.554;2024-03-17T00:55:58;6.9;;;3.3;;
23360;SDS011;11852;50.082;18.554;2024-03-17T00:57:06;7.2;;;3.5;;
23360;SDS011;11852;50.082;18.554;2024-03-17T00:58:11;6.2;;;3.4;;
23360;SDS011;11852;50.082;18.554;2024-03-17T00:59:15;5.9;;;3.2;;
23360;SDS011;11852;50.082;18.554;2024-03-17T01:00:20;7.1;;;3.1;;
23360;SDS011;11852;50.082;18.554;2024-03-17T01:01:25;6.2;;;3.2;;
23360;SDS011;11852;50.082;18.554;2024-03-17T01:02:30;6.3;;;3.0;;
23360;SDS011;11852;50.082;18.554;2024-03-17T01:03:35;7.8;;;3.0;;
23360;SDS011;11852;50.082;18.554;2024-03-17T01:04:40;6.5;;;3.0;;
23360;SDS011;11852;50.082;18.554;2024-03-17T01:05:44;7.8;;;3.5;;
23360;SDS011;11852;50.082;18.554;2024-03-17T01:06:49;7.4;;;3.2;;
23360;SDS011;11852;50.082;18.554;2024-03-17T01:07:54;6.5;;;3.1;;
23360;SDS011;11852;50.082;18.554;2024-03-17T01:08:59;6.1;;;3.1;;
23360;SDS011;11852;50.082;18.554;2024-03-17T01:10:06;7.5;;;4.0;;
23360;SDS011;11852;50.082;18.554;2024-03-17T01:11:14;7.4;;;3.1;;
23360;SDS011;11852;50.082;18.554;2024-03-17T01:12:18;8.4;;;3.3;;
23360;SDS011;11852;50.082;18.554;2024-03-17T01:13:24;6.8;;;2.6;;
23360;SDS011;11852;50.082;18.554;2024-03-17T01:14:29;7.3;;;3.0;;
23360;SDS011;11852;50.082;18.554;2024-03-17T01:15:34;7.0;;;2.9;;
23360;SDS011;11852;50.082;18.554;2024-03-17T01:16:38;7.1;;;3.4;;
23360;SDS011;11852;50.082;18.554;2024-03-17T01:17:43;8.5;;;3.2;;
23360;SDS011;11852;50.082;18.554;2024-03-17T01:18:47;8.5;;;2.8;;
23360;SDS011;11852;50.082;18.554;2024-03-17T01:19:52;6.9;;;3.2;;
23360;SDS011;11852;50.082;18.554;2024-03-17T01:20:57;7.5;;;3.0;;
23360;SDS011;11852;50.082;18.554;2024-03-17T01:22:04;7.4;;;3.0;;
23360;SDS011;11852;50.082;18.554;2024-03-17T01:23:09;6.2;;;2.8;;
23360;SDS011;11852;50.082;18.554;2024-03-17T01:24:14;10.0;;;3.1;;
23360;SDS011;11852;50.082;18.554;2024-03-17T01:25:18;7.3;;;2.7;;
23360;SDS011;11852;50.082;18.554;2024-03-17T01:26:23;6.9;;;2.7;;
23360;SDS011;11852;50.082;18.554;2024-03-17T01:27:28;7.4;;;3.0;;
23360;SDS011;11852;50.082;18.554;2024-03-17T01:28:33;6.7;;;2.8;;
23360;SDS011;11852;50.082;18.554;2024-03-17T01:29:38;7.8;;;3.2;;
23360;SDS011;11852;50.082;18.554;2024-03-17T01:30:42;6.8;;;2.5;;
23360;SDS011;11852;50.082;18.554;2024-03-17T01:31:47;7.2;;;2.8;;
23360;SDS011;11852;50.082;18.554;2024-03-17T01:32:52;7.2;;;3.0;;
23360;SDS011;11852;50.082;18.554;2024-03-17T01:33:57;7.0;;;2.7;;
23360;SDS011;11852;50.082;18.554;2024-03-17T01:35:01;7.1;;;2.6;;
23360;SDS011;11852;50.082;18.554;2024-03-17T01:36:06;7.3;;;2.7;;
23360;SDS011;11852;50.082;18.554;2024-03-17T01:37:12;7.6;;;3.1;;
23360;SDS011;11852;50.082;18.554;2024-03-17T01:38:16;8.1;;;2.7;;
23360;SDS011;11852;50.082;18.554;2024-03-17T01:39:21;8.6;;;3.0;;
23360;SDS011;11852;50.082;18.554;2024-03-17T01:40:26;7.5;;;2.7;;
23360;SDS011;11852;50.082;18.554;2024-03-17T01:41:31;6.7;;;2.5;;
23360;SDS011;11852;50.082;18.554;2024-03-17T01:42:36;6.8;;;2.5;;
23360;SDS011;11852;50.082;18.554;2024-03-17T01:43:43;6.9;;;2.5;;
23360;SDS011;11852;50.082;18.554;2024-03-17T01:44:48;6.9;;;2.5;;
23360;SDS011;11852;50.082;18.554;2024-03-17T01:45:57;7.1;;;2.4;;
23360;SDS011;11852;50.082;18.554;2024-03-17T01:47:01;6.2;;;2.1;;
23360;SDS011;11852;50.082;18.554;2024-03-17T01:48:08;5.8;;;2.5;;
23360;SDS011;11852;50.082;18.554;2024-03-17T01:49:10;7.3;;;2.3;;
23360;SDS011;11852;50.082;18.554;2024-03-17T01:50:15;6.3;;;2.3;;
23360;SDS011;11852;50.082;18.554;2024-03-17T01:51:20;7.8;;;2.8;;
23360;SDS011;11852;50.082;18.554;2024-03-17T01:52:25;6.7;;;2.2;;
23360;SDS011;11852;50.082;18.554;2024-03-17T01:53:30;6.1;;;2.2;;
23360;SDS011;11852;50.082;18.554;2024-03-17T01:54:34;6.9;;;2.3;;
23360;SDS011;11852;50.082;18.554;2024-03-17T01:55:40;7.7;;;2.3;;
23360;SDS011;11852;50.082;18.554;2024-03-17T01:56:47;5.2;;;2.2;;
23360;SDS011;11852;50.082;18.554;2024-03-17T01:57:52;6.6;;;2.2;;
23360;SDS011;11852;50.082;18.554;2024-03-17T01:58:57;7.0;;;2.4;;
23360;SDS011;11852;50.082;18.554;2024-03-17T02:00:02;8.1;;;2.7;;
23360;SDS011;11852;50.082;18.554;2024-03-17T02:01:07;7.5;;;2.8;;
23360;SDS011;11852;50.082;18.554;2024-03-17T02:02:12;9.2;;;2.7;;
23360;SDS011;11852;50.082;18.554;2024-03-17T02:03:17;6.6;;;2.2;;
23360;SDS011;11852;50.082;18.554;2024-03-17T02:04:21;6.3;;;2.0;;
23360;SDS011;11852;50.082;18.554;2024-03-17T02:05:28;6.2;;;2.2;;
23360;SDS011;11852;50.082;18.554;2024-03-17T02:06:33;8.0;;;2.5;;
23360;SDS011;11852;50.082;18.554;2024-03-17T02:07:37;6.6;;;2.4;;
23360;SDS011;11852;50.082;18.554;2024-03-17T02:09:52;6.5;;;2.2;;
23360;SDS011;11852;50.082;18.554;2024-03-17T02:10:57;6.6;;;1.9;;
23360;SDS011;11852;50.082;18.554;2024-03-17T02:12:04;5.7;;;1.8;;
23360;SDS011;11852;50.082;18.554;2024-03-17T02:13:09;6.0;;;1.9;;
23360;SDS011;11852;50.082;18.554;2024-03-17T02:14:14;7.2;;;2.0;;
23360;SDS011;11852;50.082;18.554;2024-03-17T02:15:19;7.4;;;1.9;;
23360;SDS011;11852;50.082;18.554;2024-03-17T02:16:24;6.8;;;1.9;;
23360;SDS011;11852;50.082;18.554;2024-03-17T02:17:28;6.1;;;1.7;;
23360;SDS011;11852;50.082;18.554;2024-03-17T02:18:33;6.1;;;1.9;;
23360;SDS011;11852;50.082;18.554;2024-03-17T02:19:38;6.7;;;1.9;;
23360;SDS011;11852;50.082;18.554;2024-03-17T02:20:47;5.9;;;1.6;;
23360;SDS011;11852;50.082;18.554;2024-03-17T02:21:52;6.9;;;1.8;;
23360;SDS011;11852;50.082;18.554;2024-03-17T02:22:57;5.8;;;1.8;;
23360;SDS011;11852;50.082;18.554;2024-03-17T02:24:02;5.7;;;1.6;;
23360;SDS011;11852;50.082;18.554;2024-03-17T02:25:07;5.6;;;1.8;;
23360;SDS011;11852;50.082;18.554;2024-03-17T02:26:11;6.0;;;1.9;;
23360;SDS011;11852;50.082;18.554;2024-03-17T02:27:16;6.2;;;2.1;;
23360;SDS011;11852;50.082;18.554;2024-03-17T02:28:21;6.2;;;2.0;;
23360;SDS011;11852;50.082;18.554;2024-03-17T02:29:25;5.7;;;1.5;;
23360;SDS011;11852;50.082;18.554;2024-03-17T02:30:30;5.5;;;2.0;;
23360;SDS011;11852;50.082;18.554;2024-03-17T02:31:35;7.2;;;1.9;;
23360;SDS011;11852;50.082;18.554;2024-03-17T02:32:40;6.2;;;2.1;;
23360;SDS011;11852;50.082;18.554;2024-03-17T02:33:45;7.0;;;2.0;;
23360;SDS011;11852;50.082;18.554;2024-03-17T02:34:49;7.0;;;2.1;;
23360;SDS011;11852;50.082;18.554;2024-03-17T02:35:54;6.5;;;2.1;;
23360;SDS011;11852;50.082;18.554;2024-03-17T02:36:58;6.9;;;1.9;;
23360;SDS011;11852;50.082;18.554;2024-03-17T02:38:03;8.3;;;2.4;;
23360;SDS011;11852;50.082;18.554;2024-03-17T02:39:13;5.7;;;1.8;;
23360;SDS011;11852;50.082;18.554;2024-03-17T02:40:18;6.3;;;2.0;;
23360;SDS011;11852;50.082;18.554;2024-03-17T02:41:22;7.2;;;1.7;;
23360;SDS011;11852;50.082;18.554;2024-03-17T02:42:27;5.3;;;1.7;;
23360;SDS011;11852;50.082;18.554;2024-03-17T02:43:32;7.9;;;2.2;;
23360;SDS011;11852;50.082;18.554;2024-03-17T02:44:37;6.6;;;2.2;;
23360;SDS011;11852;50.082;18.554;2024-03-17T02:45:42;6.0;;;1.8;;
23360;SDS011;11852;50.082;18.554;2024-03-17T02:46:46;6.5;;;2.0;;
23360;SDS011;11852;50.082;18.554;2024-03-17T02:47:51;6.0;;;1.8;;
23360;SDS011;11852;50.082;18.554;2024-03-17T02:48:56;5.9;;;1.7;;
23360;SDS011;11852;50.082;18.554;2024-03-17T02:50:01;6.9;;;1.9;;
23360;SDS011;11852;50.082;18.554;2024-03-17T02:51:05;6.9;;;1.9;;
23360;SDS011;11852;50.082;18.554;2024-03-17T02:52:10;6.3;;;2.2;;
23360;SDS011;11852;50.082;18.554;2024-03-17T02:53:15;6.4;;;2.2;;
23360;SDS011;11852;50.082;18.554;2024-03-17T02:54:22;6.5;;;1.9;;
23360;SDS011;11852;50.082;18.554;2024-03-17T02:55:27;6.1;;;2.1;;
23360;SDS011;11852;50.082;18.554;2024-03-17T02:56:32;5.4;;;1.7;;
23360;SDS011;11852;50.082;18.554;2024-03-17T02:57:37;6.7;;;2.0;;
23360;SDS011;11852;50.082;18.554;2024-03-17T02:58:42;7.0;;;2.0;;
23360;SDS011;11852;50.082;18.554;2024-03-17T02:59:46;7.2;;;2.2;;
23360;SDS011;11852;50.082;18.554;2024-03-17T03:00:51;6.4;;;2.1;;
23360;SDS011;11852;50.082;18.554;2024-03-17T03:01:56;7.1;;;2.0;;
23360;SDS011;11852;50.082;18.554;2024-03-17T03:03:01;6.3;;;1.8;;
23360;SDS011;11852;50.082;18.554;2024-03-17T03:04:06;7.4;;;2.0;;
23360;SDS011;11852;50.082;18.554;2024-03-17T03:05:11;6.6;;;1.9;;
23360;SDS011;11852;50.082;18.554;2024-03-17T03:06:16;8.7;;;2.2;;
23360;SDS011;11852;50.082;18.554;2024-03-17T03:07:21;6.7;;;2.1;;
23360;SDS011;11852;50.082;18.554;2024-03-17T03:08:25;6.5;;;1.9;;
23360;SDS011;11852;50.082;18.554;2024-03-17T03:09:33;7.9;;;2.0;;
23360;SDS011;11852;50.082;18.554;2024-03-17T03:10:38;7.4;;;1.8;;
23360;SDS011;11852;50.082;18.554;2024-03-17T03:11:42;7.9;;;1.9;;
23360;SDS011;11852;50.082;18.554;2024-03-17T03:12:47;6.1;;;1.8;;
23360;SDS011;11852;50.082;18.554;2024-03-17T03:13:52;6.9;;;1.7;;
23360;SDS011;11852;50.082;18.554;2024-03-17T03:14:58;6.0;;;1.7;;
23360;SDS011;11852;50.082;18.554;2024-03-17T03:16:02;5.7;;;1.8;;
23360;SDS011;11852;50.082;18.554;2024-03-17T03:17:06;7.1;;;1.8;;
23360;SDS011;11852;50.082;18.554;2024-03-17T03:18:11;8.5;;;2.1;;
23360;SDS011;11852;50.082;18.554;2024-03-17T03:19:16;6.5;;;1.7;;
23360;SDS011;11852;50.082;18.554;2024-03-17T03:20:21;8.3;;;1.9;;
23360;SDS011;11852;50.082;18.554;2024-03-17T03:21:25;7.1;;;1.8;;
23360;SDS011;11852;50.082;18.554;2024-03-17T03:22:30;7.0;;;1.8;;
23360;SDS011;11852;50.082;18.554;2024-03-17T03:23:35;8.1;;;1.8;;
23360;SDS011;11852;50.082;18.554;2024-03-17T03:24:40;6.8;;;1.8;;
23360;SDS011;11852;50.082;18.554;2024-03-17T03:25:44;7.2;;;1.9;;
23360;SDS011;11852;50.082;18.554;2024-03-17T03:26:49;6.5;;;1.9;;
23360;SDS011;11852;50.082;18.554;2024-03-17T03:27:57;5.8;;;1.8;;
23360;SDS011;11852;50.082;18.554;2024-03-17T03:29:02;7.7;;;1.9;;
23360;SDS011;11852;50.082;18.554;2024-03-17T03:30:06;6.2;;;1.9;;
23360;SDS011;11852;50.082;18.554;2024-03-17T03:31:11;8.3;;;2.1;;
23360;SDS011;11852;50.082;18.554;2024-03-17T03:32:16;7.6;;;2.1;;
23360;SDS011;11852;50.082;18.554;2024-03-17T03:33:21;6.4;;;1.9;;
23360;SDS011;11852;50.082;18.554;2024-03-17T03:34:25;7.7;;;2.0;;
23360;SDS011;11852;50.082;18.554;2024-03-17T03:35:30;7.0;;;1.9;;
23360;SDS011;11852;50.082;18.554;2024-03-17T03:36:35;7.2;;;2.0;;
23360;SDS011;11852;50.082;18.554;2024-03-17T03:37:40;7.6;;;2.0;;
23360;SDS011;11852;50.082;18.554;2024-03-17T03:38:44;7.6;;;1.9;;
23360;SDS011;11852;50.082;18.554;2024-03-17T03:39:50;9.2;;;2.3;;
23360;SDS011;11852;50.082;18.554;2024-03-17T03:40:54;7.7;;;2.1;;
23360;SDS011;11852;50.082;18.554;2024-03-17T03:41:58;6.1;;;1.8;;
23360;SDS011;11852;50.082;18.554;2024-03-17T03:43:03;8.2;;;2.1;;
23360;SDS011;11852;50.082;18.554;2024-03-17T03:44:08;6.6;;;1.9;;
23360;SDS011;11852;50.082;18.554;2024-03-17T03:45:13;7.5;;;2.2;;
23360;SDS011;11852;50.082;18.554;2024-03-17T03:46:19;5.8;;;1.9;;
23360;SDS011;11852;50.082;18.554;2024-03-17T03:47:23;7.4;;;2.3;;
23360;SDS011;11852;50.082;18.554;2024-03-17T03:48:28;6.3;;;2.1;;
23360;SDS011;11852;50.082;18.554;2024-03-17T03:49:33;7.6;;;2.3;;
23360;SDS011;11852;50.082;18.554;2024-03-17T03:50:38;7.7;;;2.1;;
23360;SDS011;11852;50.082;18.554;2024-03-17T03:51:43;7.8;;;2.1;;
23360;SDS011;11852;50.082;18.554;2024-03-17T03:52:48;6.9;;;2.0;;
23360;SDS011;11852;50.082;18.554;2024-03-17T03:53:53;7.2;;;2.3;;
23360;SDS011;11852;50.082;18.554;2024-03-17T03:54:58;8.6;;;2.3;;
23360;SDS011;11852;50.082;18.554;2024-03-17T03:56:04;8.3;;;1.9;;
23360;SDS011;11852;50.082;18.554;2024-03-17T03:57:08;5.7;;;2.0;;
23360;SDS011;11852;50.082;18.554;2024-03-17T03:58:13;7.1;;;2.0;;
23360;SDS011;11852;50.082;18.554;2024-03-17T03:59:18;7.2;;;1.9;;
23360;SDS011;11852;50.082;18.554;2024-03-17T04:00:24;7.1;;;2.1;;
23360;SDS011;11852;50.082;18.554;2024-03-17T04:01:29;7.0;;;2.3;;
23360;SDS011;11852;50.082;18.554;2024-03-17T04:02:34;7.6;;;2.3;;
23360;SDS011;11852;50.082;18.554;2024-03-17T04:03:39;7.4;;;2.3;;
23360;SDS011;11852;50.082;18.554;2024-03-17T04:04:47;7.3;;;2.0;;
23360;SDS011;11852;50.082;18.554;2024-03-17T04:06:00;6.1;;;2.0;;
23360;SDS011;11852;50.082;18.554;2024-03-17T04:06:57;7.0;;;2.3;;
23360;SDS011;11852;50.082;18.554;2024-03-17T04:08:02;7.7;;;2.2;;
23360;SDS011;11852;50.082;18.554;2024-03-17T04:09:07;6.9;;;2.3;;
23360;SDS011;11852;50.082;18.554;2024-03-17T04:10:13;7.2;;;2.2;;
23360;SDS011;11852;50.082;18.554;2024-03-17T04:11:18;7.3;;;2.1;;
23360;SDS011;11852;50.082;18.554;2024-03-17T04:12:23;7.4;;;2.2;;
23360;SDS011;11852;50.082;18.554;2024-03-17T04:13:28;6.3;;;2.1;;
23360;SDS011;11852;50.082;18.554;2024-03-17T04:14:33;6.9;;;2.3;;
23360;SDS011;11852;50.082;18.554;2024-03-17T04:15:38;7.4;;;2.3;;
23360;SDS011;11852;50.082;18.554;2024-03-17T04:16:42;7.8;;;2.1;;
23360;SDS011;11852;50.082;18.554;2024-03-17T04:17:47;6.6;;;2.1;;
23360;SDS011;11852;50.082;18.554;2024-03-17T04:18:52;7.4;;;2.3;;
23360;SDS011;11852;50.082;18.554;2024-03-17T04:19:57;7.4;;;2.5;;
23360;SDS011;11852;50.082;18.554;2024-03-17T04:21:02;7.4;;;2.0;;
23360;SDS011;11852;50.082;18.554;2024-03-17T04:22:06;7.7;;;2.3;;
23360;SDS011;11852;50.082;18.554;2024-03-17T04:23:11;6.8;;;2.3;;
23360;SDS011;11852;50.082;18.554;2024-03-17T04:24:16;7.5;;;2.2;;
23360;SDS011;11852;50.082;18.554;2024-03-17T04:25:21;6.9;;;2.7;;
23360;SDS011;11852;50.082;18.554;2024-03-17T04:26:26;6.8;;;2.2;;
23360;SDS011;11852;50.082;18.554;2024-03-17T04:27:31;8.5;;;2.7;;
23360;SDS011;11852;50.082;18.554;2024-03-17T04:28:35;9.4;;;2.6;;
23360;SDS011;11852;50.082;18.554;2024-03-17T04:29:40;8.1;;;2.4;;
23360;SDS011;11852;50.082;18.554;2024-03-17T04:30:45;8.1;;;2.5;;
23360;SDS011;11852;50.082;18.554;2024-03-17T04:31:49;7.6;;;2.6;;
23360;SDS011;11852;50.082;18.554;2024-03-17T04:32:54;8.2;;;2.5;;
23360;SDS011;11852;50.082;18.554;2024-03-17T04:34:02;6.9;;;2.4;;
23360;SDS011;11852;50.082;18.554;2024-03-17T04:35:06;9.9;;;2.2;;
23360;SDS011;11852;50.082;18.554;2024-03-17T04:36:11;8.1;;;2.5;;
23360;SDS011;11852;50.082;18.554;2024-03-17T04:37:16;7.6;;;2.4;;
23360;SDS011;11852;50.082;18.554;2024-03-17T04:38:23;8.2;;;2.6;;
23360;SDS011;11852;50.082;18.554;2024-03-17T04:39:28;7.1;;;2.4;;
23360;SDS011;11852;50.082;18.554;2024-03-17T04:40:33;8.5;;;2.5;;
23360;SDS011;11852;50.082;18.554;2024-03-17T04:41:37;6.5;;;2.2;;
23360;SDS011;11852;50.082;18.554;2024-03-17T04:42:42;7.6;;;2.3;;
23360;SDS011;11852;50.082;18.554;2024-03-17T04:43:47;7.5;;;2.4;;
23360;SDS011;11852;50.082;18.554;2024-03-17T04:44:52;7.6;;;2.8;;
23360;SDS011;11852;50.082;18.554;2024-03-17T04:47:06;8.1;;;2.8;;
23360;SDS011;11852;50.082;18.554;2024-03-17T04:48:14;8.5;;;3.0;;
23360;SDS011;11852;50.082;18.554;2024-03-17T04:49:19;6.3;;;2.6;;
23360;SDS011;11852;50.082;18.554;2024-03-17T04:50:26;7.3;;;2.5;;
23360;SDS011;11852;50.082;18.554;2024-03-17T04:51:31;7.3;;;2.6;;
23360;SDS011;11852;50.082;18.554;2024-03-17T04:52:36;9.0;;;3.2;;
23360;SDS011;11852;50.082;18.554;2024-03-17T04:53:40;9.7;;;3.3;;
23360;SDS011;11852;50.082;18.554;2024-03-17T04:54:45;9.4;;;3.0;;
23360;SDS011;11852;50.082;18.554;2024-03-17T04:57:05;9.3;;;3.0;;
23360;SDS011;11852;50.082;18.554;2024-03-17T04:58:10;7.6;;;2.9;;
23360;SDS011;11852;50.082;18.554;2024-03-17T04:59:14;7.9;;;2.8;;
23360;SDS011;11852;50.082;18.554;2024-03-17T05:00:19;7.2;;;2.5;;
23360;SDS011;11852;50.082;18.554;2024-03-17T05:01:24;7.9;;;3.0;;
23360;SDS011;11852;50.082;18.554;2024-03-17T05:02:29;8.5;;;2.9;;
23360;SDS011;11852;50.082;18.554;2024-03-17T05:03:34;8.3;;;2.7;;
23360;SDS011;11852;50.082;18.554;2024-03-17T05:04:39;7.2;;;2.7;;
23360;SDS011;11852;50.082;18.554;2024-03-17T05:05:43;8.1;;;2.8;;
23360;SDS011;11852;50.082;18.554;2024-03-17T05:06:48;9.7;;;2.8;;
23360;SDS011;11852;50.082;18.554;2024-03-17T05:07:53;9.6;;;2.8;;
23360;SDS011;11852;50.082;18.554;2024-03-17T05:08:58;9.5;;;2.9;;
23360;SDS011;11852;50.082;18.554;2024-03-17T05:10:03;10.7;;;3.8;;
23360;SDS011;11852;50.082;18.554;2024-03-17T05:11:08;8.9;;;3.3;;
23360;SDS011;11852;50.082;18.554;2024-03-17T05:12:13;10.1;;;3.3;;
23360;SDS011;11852;50.082;18.554;2024-03-17T05:13:17;11.2;;;4.1;;
23360;SDS011;11852;50.082;18.554;2024-03-17T05:14:25;10.5;;;3.6;;
23360;SDS011;11852;50.082;18.554;2024-03-17T05:15:30;10.1;;;3.4;;
23360;SDS011;11852;50.082;18.554;2024-03-17T05:16:35;10.2;;;3.6;;
23360;SDS011;11852;50.082;18.554;2024-03-17T05:17:39;12.3;;;4.2;;
23360;SDS011;11852;50.082;18.554;2024-03-17T05:18:44;15.7;;;5.3;;
23360;SDS011;11852;50.082;18.554;2024-03-17T05:19:49;15.6;;;5.0;;
23360;SDS011;11852;50.082;18.554;2024-03-17T05:22:06;13.3;;;4.4;;
23360;SDS011;11852;50.082;18.554;2024-03-17T05:23:11;14.1;;;4.6;;
23360;SDS011;11852;50.082;18.554;2024-03-17T05:24:16;14.4;;;4.9;;
23360;SDS011;11852;50.082;18.554;2024-03-17T05:25:21;11.6;;;4.1;;
23360;SDS011;11852;50.082;18.554;2024-03-17T05:26:26;11.8;;;4.6;;
23360;SDS011;11852;50.082;18.554;2024-03-17T05:27:31;11.4;;;4.1;;
23360;SDS011;11852;50.082;18.554;2024-03-17T05:28:36;9.7;;;3.9;;
23360;SDS011;11852;50.082;18.554;2024-03-17T05:29:41;11.1;;;3.9;;
23360;SDS011;11852;50.082;18.554;2024-03-17T05:30:46;12.4;;;4.7;;
23360;SDS011;11852;50.082;18.554;2024-03-17T05:31:51;12.3;;;4.7;;
23360;SDS011;11852;50.082;18.554;2024-03-17T05:32:56;21.6;;;6.0;;
23360;SDS011;11852;50.082;18.554;2024-03-17T05:34:02;13.9;;;5.7;;
23360;SDS011;11852;50.082;18.554;2024-03-17T05:35:07;13.2;;;5.6;;
23360;SDS011;11852;50.082;18.554;2024-03-17T05:36:12;10.6;;;4.0;;
23360;SDS011;11852;50.082;18.554;2024-03-17T05:37:16;11.4;;;4.0;;
23360;SDS011;11852;50.082;18.554;2024-03-17T05:38:22;13.5;;;4.9;;
23360;SDS011;11852;50.082;18.554;2024-03-17T05:39:26;12.5;;;5.0;;
23360;SDS011;11852;50.082;18.554;2024-03-17T05:40:31;10.7;;;4.1;;
23360;SDS011;11852;50.082;18.554;2024-03-17T05:41:35;9.0;;;3.4;;
23360;SDS011;11852;50.082;18.554;2024-03-17T05:42:43;10.5;;;2.9;;
23360;SDS011;11852;50.082;18.554;2024-03-17T05:43:48;8.7;;;3.2;;
23360;SDS011;11852;50.082;18.554;2024-03-17T05:44:52;8.7;;;3.0;;
23360;SDS011;11852;50.082;18.554;2024-03-17T05:45:57;9.1;;;2.8;;
23360;SDS011;11852;50.082;18.554;2024-03-17T05:47:05;10.1;;;3.2;;
23360;SDS011;11852;50.082;18.554;2024-03-17T05:48:10;9.1;;;3.0;;
23360;SDS011;11852;50.082;18.554;2024-03-17T05:49:14;10.0;;;3.7;;
23360;SDS011;11852;50.082;18.554;2024-03-17T05:50:19;10.8;;;2.9;;
23360;SDS011;11852;50.082;18.554;2024-03-17T05:51:24;9.7;;;3.4;;
23360;SDS011;11852;50.082;18.554;2024-03-17T05:52:29;11.5;;;3.5;;
23360;SDS011;11852;50.082;18.554;2024-03-17T05:53:34;11.4;;;3.7;;
23360;SDS011;11852;50.082;18.554;2024-03-17T05:54:38;9.7;;;3.4;;
23360;SDS011;11852;50.082;18.554;2024-03-17T05:55:43;9.7;;;3.4;;
23360;SDS011;11852;50.082;18.554;2024-03-17T05:56:48;9.7;;;3.4;;
23360;SDS011;11852;50.082;18.554;2024-03-17T05:57:56;12.2;;;4.6;;
23360;SDS011;11852;50.082;18.554;2024-03-17T05:59:00;11.3;;;4.0;;
23360;SDS011;11852;50.082;18.554;2024-03-17T06:00:05;11.7;;;4.1;;
23360;SDS011;11852;50.082;18.554;2024-03-17T06:01:10;12.4;;;4.4;;
23360;SDS011;11852;50.082;18.554;2024-03-17T06:02:15;12.4;;;4.4;;
23360;SDS011;11852;50.082;18.554;2024-03-17T06:03:20;12.4;;;4.4;;
23360;SDS011;11852;50.082;18.554;2024-03-17T06:04:25;12.4;;;4.4;;
23360;SDS011;11852;50.082;18.554;2024-03-17T06:05:33;12.4;;;4.4;;
23360;SDS011;11852;50.082;18.554;2024-03-17T06:06:38;12.4;;;4.4;;
23360;SDS011;11852;50.082;18.554;2024-03-17T06:07:45;12.4;;;4.4;;
23360;SDS011;11852;50.082;18.554;2024-03-17T06:08:50;13.2;;;4.1;;
23360;SDS011;11852;50.082;18.554;2024-03-17T06:09:55;12.5;;;3.6;;
23360;SDS011;11852;50.082;18.554;2024-03-17T06:11:00;13.6;;;4.4;;
23360;SDS011;11852;50.082;18.554;2024-03-17T06:12:05;13.6;;;4.1;;
23360;SDS011;11852;50.082;18.554;2024-03-17T06:13:10;10.4;;;3.8;;
23360;SDS011;11852;50.082;18.554;2024-03-17T06:14:14;10.4;;;3.5;;
23360;SDS011;11852;50.082;18.554;2024-03-17T06:15:19;11.1;;;3.5;;
23360;SDS011;11852;50.082;18.554;2024-03-17T06:16:24;11.2;;;3.8;;
23360;SDS011;11852;50.082;18.554;2024-03-17T06:17:29;11.1;;;3.9;;
23360;SDS011;11852;50.082;18.554;2024-03-17T06:18:33;10.4;;;3.7;;
23360;SDS011;11852;50.082;18.554;2024-03-17T06:19:38;10.7;;;3.5;;
23360;SDS011;11852;50.082;18.554;2024-03-17T06:20:43;10.2;;;3.2;;
23360;SDS011;11852;50.082;18.554;2024-03-17T06:21:48;10.5;;;3.0;;
23360;SDS011;11852;50.082;18.554;2024-03-17T06:22:53;10.6;;;2.6;;
23360;SDS011;11852;50.082;18.554;2024-03-17T06:23:58;8.2;;;2.2;;
23360;SDS011;11852;50.082;18.554;2024-03-17T06:25:03;8.0;;;2.4;;
23360;SDS011;11852;50.082;18.554;2024-03-17T06:26:11;6.6;;;2.1;;
23360;SDS011;11852;50.082;18.554;2024-03-17T06:27:14;9.3;;;2.4;;
23360;SDS011;11852;50.082;18.554;2024-03-17T06:28:19;9.2;;;2.0;;
23360;SDS011;11852;50.082;18.554;2024-03-17T06:29:24;9.5;;;2.4;;
23360;SDS011;11852;50.082;18.554;2024-03-17T06:30:28;9.0;;;2.4;;
23360;SDS011;11852;50.082;18.554;2024-03-17T06:31:33;8.8;;;2.2;;
23360;SDS011;11852;50.082;18.554;2024-03-17T06:32:38;6.9;;;2.1;;
23360;SDS011;11852;50.082;18.554;2024-03-17T06:33:43;8.4;;;2.2;;
23360;SDS011;11852;50.082;18.554;2024-03-17T06:34:49;9.3;;;2.5;;
23360;SDS011;11852;50.082;18.554;2024-03-17T06:35:54;7.2;;;2.0;;
23360;SDS011;11852;50.082;18.554;2024-03-17T06:36:59;7.1;;;2.0;;
23360;SDS011;11852;50.082;18.554;2024-03-17T06:38:05;7.9;;;2.1;;
23360;SDS011;11852;50.082;18.554;2024-03-17T06:39:10;7.7;;;2.1;;
23360;SDS011;11852;50.082;18.554;2024-03-17T06:40:15;9.0;;;2.1;;
23360;SDS011;11852;50.082;18.554;2024-03-17T06:41:20;8.0;;;2.3;;
23360;SDS011;11852;50.082;18.554;2024-03-17T06:42:25;7.3;;;2.0;;